Hauptseite
METAR-TAF:

METAR-TAF

Flughäfen :

Cape May County Airport

Wildwood, New Jersey, Vereinigte Staaten

Breite: 39-01N, Länge: 074-55W, Höhe: 7 m

Beobachtung

Neuester Wetterbericht von vor 1 Stunde und 6 Minuten, um 00:56 UTC
Wind 6 kt aus unterschiedlichen Richtungen
Temperatur 5°C
Luftfeuchtigkeit 65%
Luftdruck 1021 hPa
Sichtweite: 16.1 km
Himmel klar

METAR: KWWD 160056Z AUTO VRB06KT 10SM CLR 05/M01 A3015 RMK AO2 SLP211 T00501011

Zeit: 21:02 (02:02 UTC)


TAF: fehlend

Wetterbeobachtungen und Prognosen von mehr als 4000 Flughäfen (METAR und TAF Bericht).

Die verfügbaren Stationen werden durch gelbe und rote Markierungen auf der Karte dargestellt.

Führen Sie die Maus auf sie, um den Namen der Station zu sehen.

Darauf klicken, um die Beobachtung von Wetterbeobachtungen und Prognosen zu sehen.

Um die Karte zu ändern : klicken Sie auf den grünen Tasten mit einem schwarzen Kreuz Zum Vergrößern, auf den grünen Button mit einem Gedankenstrich zu verkleinern, oder auf die grünen Pfeile für benachbarte Karten.


METAR-TAF: